• Join FlightAware (Why Join?)
  • Login
  • US Flag 
03:32PM EDT


 

Airport Tracker/Info


-or-


 

Live Flight TrackerFlight Track Log ✈ N839CA ✈ 09-May-2013 ✈ KBWI - KEWR

Flight Track Log - Related Links

Times and Time Zones

All times are in EDT time to prevent confusion due to time zone crossing. See the N839CA flight status page for this flight to view local times or setup timezone preferences in your user account.

Time Position Orientation Groundspeed Altitude Reporting Facility
EDT Latitude Longitude Course Direction KTS MPH feet Rate Location/Type
10:11AM 39.2167 -76.6833 46° Northeast 178 205 1,700  Level Potomac TRACON
10:12AM 39.2667 -76.6500 27° Northeast 184 212 3,000 1,200 Climbing Potomac TRACON
10:13AM 39.2667 -76.5833 90° East 207 238 4,200 1,080 Climbing Potomac TRACON
10:14AM 39.2667 -76.5167 90° East 211 243 5,100 900 Climbing Potomac TRACON
10:15AM 39.2500 -76.4500 108° East 224 258 5,900 900 Climbing Potomac TRACON
10:16AM 39.2236 -76.1352 46° Northeast  Level FlightAware Approximate
10:16AM 39.2500 -76.3667 90° East 227 261 6,900  Level Potomac TRACON
10:17AM 39.2333 -76.2833 104° East 232 267 7,800 840 Climbing Potomac TRACON
10:18AM 39.2500 -76.2333 67° East 229 264 8,500 900 Climbing Potomac TRACON
10:19AM 39.2833 -76.1500 63° Northeast 222 255 9,600 900 Climbing Potomac TRACON
10:20AM 39.3167 -76.1000 49° Northeast 224 258 10,300 420 Climbing Potomac TRACON
10:22AM 39.4167 -75.9500 49° Northeast 262 302 11,000 180 Climbing Philadelphia TRACON
10:23AM 39.4667 -75.8667 52° Northeast 267 307 11,000  Level Philadelphia TRACON
10:24AM 39.5167 -75.8000 46° Northeast 274 315 11,000  Level Philadelphia TRACON
10:25AM 39.5667 -75.7500 38° Northeast 274 315 11,000  Level Philadelphia TRACON
10:26AM 39.6167 -75.6833 46° Northeast 269 310 11,000  Level Philadelphia TRACON
10:27AM 39.6833 -75.6167 38° Northeast 269 310 11,000  Level Philadelphia TRACON
10:28AM 39.7000 -75.5167 78° East 277 319 11,000 -420 Level Philadelphia TRACON
10:29AM 39.7333 -75.4167 67° East 294 338 10,200 -540 Descending Philadelphia TRACON
10:30AM 39.7667 -75.3167 67° East 295 339 10,000 -360 Descending Philadelphia TRACON
10:31AM 39.7833 -75.2167 78° East 281 323 9,500 -660 Descending Philadelphia TRACON
10:32AM 39.8167 -75.1333 62° Northeast 286 329 8,700 -780 Descending Philadelphia TRACON
10:33AM 39.8500 -75.0333 67° East 282 325 8,000 -360 Descending Philadelphia TRACON
10:34AM 39.8833 -74.9500 62° Northeast 248 285 8,000 -180 Level Philadelphia TRACON
10:35AM 39.9333 -74.8833 46° Northeast 265 305 7,700 -540 Descending Philadelphia TRACON
10:36AM 39.9833 -74.8167 46° Northeast 275 316 7,000 -420 Descending Philadelphia TRACON
10:37AM 40.0167 -74.7667 49° Northeast 258 297 7,000  Level New York TRACON
10:38AM 40.0667 -74.7000 46° Northeast 263 303 7,000  Level New York TRACON
10:39AM 40.1167 -74.6333 46° Northeast 268 308 7,000  Level New York TRACON
10:40AM 40.1667 -74.5667 46° Northeast 265 305 7,000  Level New York TRACON
10:41AM 40.2167 -74.5333 27° Northeast 264 304 7,000 -420 Level New York TRACON
10:42AM 40.2833 -74.4833 30° Northeast 264 304 6,300 -900 Descending New York TRACON
10:43AM 40.3500 -74.4333 30° Northeast 259 298 5,300 -1,140 Descending New York TRACON
10:44AM 40.4000 -74.3667 45° Northeast 260 299 4,100 -1,200 Descending New York TRACON
10:45AM 40.4667 -74.3333 21° North 246 283 3,100 -720 Descending New York TRACON
10:46AM 40.5167 -74.2833 37° Northeast 205 236 2,800 -180 Descending New York TRACON
10:47AM 40.5667 -74.2500 27° Northeast 197 227 2,800 -540 Level New York TRACON
10:48AM 40.6000 -74.2167 37° Northeast 162 186 1,700 -900 Descending New York TRACON
10:49AM 40.6333 -74.2000 21° North 123 142 1,000 -720 Descending New York TRACON
10:50AM 40.6667 -74.1833 21° North 115 132 300 -720 Descending New York TRACON
10:52AM 40.6833 -74.1667 21° North  Level FlightAware Approximate
10:59AM 40.6925 -74.1687 21° North  Level Estimated